sim
Sign-in with your pilot id or email,
or register
Callsign
Passwort

Schedule Details

Flight Number: GEC8371 (A)
Departure: Mumbai Chhatrapati Shivaji International Airport (VABB) at 02:40
Arrival: Hyderabad Rajiv Gandhi International Airport (VOHS) at 04:05
Route: Lufthansa Cargo Cargo Schedule. Enter filed route here before submitting Pirep.

Weather Information
Getting current METAR information for VABB 191800Z 27007KT 3500 HZ SCT020 28/25 Q1010 NOSIG
Getting current METAR information for VOHS 191800Z 23004KT 6000 SCT020 BKN100 25/23 Q1012 NOSIG

Schedule Frequency

Route Map